Time,TemperatureF,DewpointF,PressureIn,WindDirection,WindDirectionDegrees,WindSpeedMPH,WindSpeedGustMPH,Humidity,HourlyPrecipIn,Conditions,Clouds,dailyrainin,SoftwareType,DateUTC
2010-07-24 11:45:00,79.8,73.1,29.89,NNE,13,4.0,0.0,80,0.00,,,0.00,WeatherTracker,2010-07-24 16:45:00,
2010-07-24 11:50:00,79.0,71.5,29.89,North,11,5.0,0.0,78,0.00,,,0.00,WeatherTracker,2010-07-24 16:50:00,
2010-07-24 11:55:00,79.0,71.9,29.89,North,360,1.0,0.0,79,0.00,,,0.00,WeatherTracker,2010-07-24 16:55:00,
2010-07-24 12:00:00,79.4,71.9,29.89,SE,134,5.0,0.0,78,0.00,,,0.00,WeatherTracker,2010-07-24 17:00:00,
2010-07-24 12:05:00,79.5,71.6,29.89,North,360,2.0,0.0,77,0.00,,,0.00,WeatherTracker,2010-07-24 17:05:00,
2010-07-24 12:10:00,79.4,71.5,29.90,East,79,8.0,0.0,77,0.00,,,0.00,WeatherTracker,2010-07-24 17:10:00,
2010-07-24 12:16:00,79.4,71.9,29.90,NE,41,4.0,0.0,78,0.00,,,0.00,WeatherTracker,2010-07-24 17:16:00,
2010-07-24 12:20:00,79.1,71.3,29.90,WNW,300,1.0,0.0,77,0.00,,,0.00,WeatherTracker,2010-07-24 17:20:00,
2010-07-24 12:26:00,79.6,71.7,29.90,West,263,10.0,0.0,77,0.00,,,0.00,WeatherTracker,2010-07-24 17:26:00,
2010-07-24 12:31:00,80.1,70.6,29.90,WSW,237,0.0,0.0,73,0.00,,,0.00,WeatherTracker,2010-07-24 17:31:00,
2010-07-24 12:36:00,80.3,70.8,29.90,WNW,294,4.0,0.0,73,0.00,,,0.00,WeatherTracker,2010-07-24 17:36:00,
2010-07-24 12:41:00,80.1,71.4,29.89,WSW,252,1.0,0.0,75,0.00,,,0.00,WeatherTracker,2010-07-24 17:41:00,
2010-07-24 12:46:00,79.9,71.2,29.90,West,262,2.0,0.0,75,0.00,,,0.00,WeatherTracker,2010-07-24 17:46:00,
2010-07-24 12:51:00,79.8,71.2,29.89,NE,46,3.0,0.0,75,0.00,,,0.00,WeatherTracker,2010-07-24 17:51:00,
2010-07-24 12:56:00,80.0,71.3,29.89,NNW,327,2.0,0.0,75,0.00,,,0.00,WeatherTracker,2010-07-24 17:56:00,
2010-07-24 13:01:00,80.5,71.0,29.89,North,9,3.0,0.0,73,0.00,,,0.00,WeatherTracker,2010-07-24 18:01:00,
2010-07-24 13:06:00,80.5,71.4,29.89,West,267,2.0,0.0,74,0.00,,,0.00,WeatherTracker,2010-07-24 18:06:00,
2010-07-24 13:11:00,80.2,71.1,29.90,WSW,247,1.0,0.0,74,0.00,,,0.00,WeatherTracker,2010-07-24 18:11:00,
2010-07-24 13:16:00,79.7,71.1,29.90,ENE,78,1.0,0.0,75,0.00,,,0.00,WeatherTracker,2010-07-24 18:16:00,
2010-07-24 13:21:00,79.0,70.8,29.91,NE,50,0.0,0.0,76,0.00,,,0.00,WeatherTracker,2010-07-24 18:21:00,
2010-07-24 13:26:00,79.3,71.1,29.91,NNW,344,3.0,0.0,76,0.00,,,0.00,WeatherTracker,2010-07-24 18:26:00,
2010-07-24 13:31:00,79.2,70.6,29.91,ESE,109,5.0,0.0,75,0.00,,,0.00,WeatherTracker,2010-07-24 18:31:00,
2010-07-24 13:36:00,78.7,70.9,29.91,ESE,115,2.0,0.0,77,0.00,,,0.00,WeatherTracker,2010-07-24 18:36:00,
2010-07-24 13:41:00,78.4,71.0,29.91,NNE,13,4.0,0.0,78,0.00,,,0.00,WeatherTracker,2010-07-24 18:41:00,
2010-07-24 13:46:00,78.1,71.0,29.91,ENE,74,2.0,0.0,79,0.00,,,0.00,WeatherTracker,2010-07-24 18:46:00,
2010-07-24 13:51:00,78.0,70.6,29.91,NNE,28,6.0,0.0,78,0.00,,,0.00,WeatherTracker,2010-07-24 18:51:00,
2010-07-24 13:56:00,78.0,70.2,29.91,North,360,1.0,0.0,77,0.00,,,0.00,WeatherTracker,2010-07-24 18:56:00,
2010-07-24 14:01:00,78.0,70.6,29.91,NNW,341,0.0,0.0,78,0.00,,,0.00,WeatherTracker,2010-07-24 19:01:00,
2010-07-24 14:06:00,78.3,70.9,29.91,NNW,336,0.0,0.0,78,0.00,,,0.00,WeatherTracker,2010-07-24 19:06:00,
2010-07-24 14:11:00,78.4,70.6,29.91,NNE,26,5.0,0.0,77,0.00,,,0.00,WeatherTracker,2010-07-24 19:11:00,
2010-07-24 14:16:00,78.1,70.3,29.91,East,98,1.0,0.0,77,0.00,,,0.00,WeatherTracker,2010-07-24 19:16:00,
2010-07-24 14:21:00,78.1,70.3,29.91,ENE,66,3.0,0.0,77,0.00,,,0.00,WeatherTracker,2010-07-24 19:21:00,
2010-07-24 14:26:00,78.1,69.9,29.91,ENE,60,3.0,0.0,76,0.00,,,0.00,WeatherTracker,2010-07-24 19:26:00,
2010-07-24 14:31:00,78.3,70.5,29.91,NNE,28,2.0,0.0,77,0.00,,,0.00,WeatherTracker,2010-07-24 19:31:00,
2010-07-24 14:36:00,78.4,70.2,29.91,West,268,3.0,0.0,76,0.00,,,0.00,WeatherTracker,2010-07-24 19:36:00,
2010-07-24 14:41:00,78.4,69.8,29.91,East,84,2.0,0.0,75,0.00,,,0.00,WeatherTracker,2010-07-24 19:41:00,
2010-07-24 14:46:00,77.9,69.7,29.91,NNE,33,2.0,0.0,76,0.00,,,0.00,WeatherTracker,2010-07-24 19:46:00,
2010-07-24 14:51:00,77.9,69.7,29.91,North,360,3.0,0.0,76,0.00,,,0.00,WeatherTracker,2010-07-24 19:51:00,
2010-07-24 14:56:00,78.2,69.2,29.92,NW,309,5.0,0.0,74,0.00,,,0.00,WeatherTracker,2010-07-24 19:56:00,
2010-07-24 15:01:00,78.2,69.6,29.91,NNE,30,3.0,0.0,75,0.00,,,0.00,WeatherTracker,2010-07-24 20:01:00,
2010-07-24 15:06:00,78.3,70.5,29.92,North,9,2.0,0.0,77,0.00,,,0.00,WeatherTracker,2010-07-24 20:06:00,
2010-07-24 15:11:00,78.1,70.3,29.92,ENE,57,0.0,0.0,77,0.00,,,0.00,WeatherTracker,2010-07-24 20:11:00,
2010-07-24 15:17:00,77.8,69.6,29.92,North,360,1.0,0.0,76,0.00,,,0.00,WeatherTracker,2010-07-24 20:17:00,
2010-07-24 15:22:00,77.8,69.6,29.92,NNE,28,2.0,0.0,76,0.00,,,0.00,WeatherTracker,2010-07-24 20:22:00,
2010-07-24 15:27:00,77.9,70.1,29.92,SE,142,0.0,0.0,77,0.00,,,0.00,WeatherTracker,2010-07-24 20:27:00,
2010-07-24 15:32:00,77.9,69.7,29.92,WNW,295,4.0,0.0,76,0.00,,,0.00,WeatherTracker,2010-07-24 20:32:00,
2010-07-24 15:37:00,77.9,69.7,29.92,NE,40,2.0,0.0,76,0.00,,,0.00,WeatherTracker,2010-07-24 20:37:00,
2010-07-24 15:42:00,77.9,69.3,29.92,NNE,19,5.0,0.0,75,0.00,,,0.00,WeatherTracker,2010-07-24 20:42:00,
2010-07-24 15:47:00,77.9,70.1,29.92,NNW,345,2.0,0.0,77,0.00,,,0.00,WeatherTracker,2010-07-24 20:47:00,
2010-07-24 15:52:00,78.0,69.0,29.92,WSW,258,1.0,0.0,74,0.00,,,0.00,WeatherTracker,2010-07-24 20:52:00,
2010-07-24 15:57:00,78.4,69.4,29.92,East,87,2.0,0.0,74,0.00,,,0.00,WeatherTracker,2010-07-24 20:57:00,
2010-07-24 16:02:00,78.3,69.3,29.92,East,82,2.0,0.0,74,0.00,,,0.00,WeatherTracker,2010-07-24 21:02:00,
2010-07-24 16:07:00,78.3,69.3,29.92,North,350,4.0,0.0,74,0.00,,,0.00,WeatherTracker,2010-07-24 21:07:00,
2010-07-24 16:12:00,78.4,69.4,29.92,ESE,113,0.0,0.0,74,0.00,,,0.00,WeatherTracker,2010-07-24 21:12:00,
2010-07-24 16:17:00,78.3,70.1,29.92,NW,323,1.0,0.0,76,0.00,,,0.00,WeatherTracker,2010-07-24 21:17:00,
2010-07-24 16:22:00,78.4,69.4,29.92,NNW,333,3.0,0.0,74,0.00,,,0.00,WeatherTracker,2010-07-24 21:22:00,
2010-07-24 16:27:00,78.5,69.9,29.92,NE,45,2.0,0.0,75,0.00,,,0.00,WeatherTracker,2010-07-24 21:27:00,
2010-07-24 16:32:00,78.4,70.2,29.92,WNW,299,2.0,0.0,76,0.00,,,0.00,WeatherTracker,2010-07-24 21:32:00,
2010-07-24 16:37:00,78.4,69.4,29.92,NE,36,3.0,0.0,74,0.00,,,0.00,WeatherTracker,2010-07-24 21:37:00,
2010-07-24 17:48:00,78.4,70.6,29.88,North,355,3.0,0.0,77,0.00,,,0.00,WeatherTracker,2010-07-24 22:48:00,
2010-07-24 17:53:00,78.3,70.5,29.89,NNE,22,3.0,0.0,77,0.00,,,0.00,WeatherTracker,2010-07-24 22:53:00,
2010-07-24 17:58:00,78.2,70.0,29.89,ENE,63,1.0,0.0,76,0.00,,,0.00,WeatherTracker,2010-07-24 22:58:00,
2010-07-24 18:03:00,78.0,69.8,29.90,North,5,3.0,0.0,76,0.00,,,0.00,WeatherTracker,2010-07-24 23:03:00,
2010-07-24 18:08:00,77.9,70.1,29.90,ENE,64,3.0,0.0,77,0.00,,,0.00,WeatherTracker,2010-07-24 23:08:00,
2010-07-24 18:13:00,77.9,70.1,29.91,NE,51,1.0,0.0,77,0.00,,,0.00,WeatherTracker,2010-07-24 23:13:00,
2010-07-24 18:18:00,78.0,69.8,29.91,NNE,33,2.0,0.0,76,0.00,,,0.00,WeatherTracker,2010-07-24 23:18:00,
2010-07-24 18:23:00,78.2,70.4,29.91,NW,309,0.0,0.0,77,0.00,,,0.00,WeatherTracker,2010-07-24 23:23:00,
2010-07-24 18:28:00,78.2,70.8,29.90,NNE,24,0.0,0.0,78,0.00,,,0.00,WeatherTracker,2010-07-24 23:28:00,
2010-07-24 18:33:00,78.2,70.4,29.90,NNW,338,3.0,0.0,77,0.00,,,0.00,WeatherTracker,2010-07-24 23:33:00,
2010-07-24 18:38:00,78.1,69.5,29.90,NNE,17,0.0,0.0,75,0.00,,,0.00,WeatherTracker,2010-07-24 23:38:00,
2010-07-24 18:44:00,78.1,69.1,29.90,NW,322,0.0,0.0,74,0.00,,,0.00,WeatherTracker,2010-07-24 23:44:00,
2010-07-24 18:48:00,78.1,69.1,29.90,NNW,342,0.0,0.0,74,0.00,,,0.00,WeatherTracker,2010-07-24 23:48:00,
2010-07-24 18:53:00,78.2,68.8,29.90,NE,35,3.0,0.0,73,0.00,,,0.00,WeatherTracker,2010-07-24 23:53:00,
2010-07-24 18:59:00,78.2,68.8,29.89,ENE,59,0.0,0.0,73,0.00,,,0.00,WeatherTracker,2010-07-24 23:59:00,
2010-07-24 19:04:00,78.3,69.7,29.89,NNW,348,3.0,0.0,75,0.00,,,0.00,WeatherTracker,2010-07-25 00:04:00,
2010-07-24 19:09:00,78.4,69.4,29.89,North,360,0.0,0.0,74,0.00,,,0.00,WeatherTracker,2010-07-25 00:09:00,
2010-07-24 19:14:00,78.3,69.3,29.90,NNW,343,0.0,0.0,74,0.00,,,0.00,WeatherTracker,2010-07-25 00:14:00,
2010-07-24 19:19:00,78.3,68.9,29.91,WSW,252,1.0,0.0,73,0.00,,,0.00,WeatherTracker,2010-07-25 00:19:00,
2010-07-24 19:24:00,78.4,69.4,29.91,North,5,10.0,0.0,74,0.00,,,0.00,WeatherTracker,2010-07-25 00:24:00,
2010-07-24 19:29:00,78.2,69.2,29.91,NE,55,0.0,0.0,74,0.00,,,0.00,WeatherTracker,2010-07-25 00:29:00,
2010-07-24 19:34:00,78.0,69.0,29.92,ENE,69,1.0,0.0,74,0.00,,,0.00,WeatherTracker,2010-07-25 00:34:00,
2010-07-24 19:39:00,78.0,68.2,29.92,ESE,109,1.0,0.0,72,0.00,,,0.00,WeatherTracker,2010-07-25 00:39:00,
2010-07-24 19:44:00,77.8,68.4,29.92,ENE,76,0.0,0.0,73,0.00,,,0.00,WeatherTracker,2010-07-25 00:44:00,
2010-07-24 19:49:00,77.5,68.1,29.92,ENE,60,0.0,0.0,73,0.00,,,0.00,WeatherTracker,2010-07-25 00:49:00,
2010-07-24 19:54:00,77.2,67.9,29.93,NNE,21,0.0,0.0,73,0.00,,,0.00,WeatherTracker,2010-07-25 00:54:00,
2010-07-24 19:59:00,77.2,67.9,29.93,North,355,1.0,0.0,73,0.00,,,0.00,WeatherTracker,2010-07-25 00:59:00,
2010-07-24 20:04:00,77.2,67.9,29.92,NNW,346,2.0,0.0,73,0.00,,,0.00,WeatherTracker,2010-07-25 01:04:00,
2010-07-24 20:09:00,77.1,68.5,29.93,ENE,60,0.0,0.0,75,0.00,,,0.00,WeatherTracker,2010-07-25 01:09:00,
2010-07-24 20:14:00,76.8,68.6,29.93,North,9,0.0,0.0,76,0.00,,,0.00,WeatherTracker,2010-07-25 01:14:00,
2010-07-24 20:19:00,76.5,68.4,29.93,NNW,338,0.0,0.0,76,0.00,,,0.00,WeatherTracker,2010-07-25 01:19:00,
2010-07-24 20:24:00,76.2,68.4,29.93,NNW,348,0.0,0.0,77,0.00,,,0.00,WeatherTracker,2010-07-25 01:24:00,
2010-07-24 20:29:00,75.8,67.7,29.93,NNW,335,1.0,0.0,76,0.00,,,0.00,WeatherTracker,2010-07-25 01:29:00,
2010-07-24 20:34:00,75.7,68.7,29.93,NNW,335,0.0,0.0,79,0.00,,,0.00,WeatherTracker,2010-07-25 01:34:00,
2010-07-24 20:39:00,75.4,69.2,29.94,NNW,335,0.0,0.0,81,0.00,,,0.00,WeatherTracker,2010-07-25 01:39:00,
2010-07-24 20:44:00,74.9,67.9,29.94,East,80,0.0,0.0,79,0.00,,,0.00,WeatherTracker,2010-07-25 01:44:00,
2010-07-24 20:49:00,74.8,68.2,29.95,East,80,0.0,0.0,80,0.00,,,0.00,WeatherTracker,2010-07-25 01:49:00,
2010-07-24 20:54:00,74.6,68.0,29.95,East,80,0.0,0.0,80,0.00,,,0.00,WeatherTracker,2010-07-25 01:54:00,
2010-07-24 20:59:00,74.2,68.0,29.95,East,80,0.0,0.0,81,0.00,,,0.00,WeatherTracker,2010-07-25 01:59:00,
2010-07-24 21:04:00,73.9,68.0,29.95,East,80,0.0,0.0,82,0.00,,,0.00,WeatherTracker,2010-07-25 02:04:00,
2010-07-24 21:10:00,73.6,68.1,29.96,East,80,0.0,0.0,83,0.00,,,0.00,WeatherTracker,2010-07-25 02:10:00,
2010-07-24 21:15:00,73.3,68.2,29.96,East,80,0.0,0.0,84,0.00,,,0.00,WeatherTracker,2010-07-25 02:15:00,
2010-07-24 21:20:00,72.9,67.8,29.97,East,80,0.0,0.0,84,0.00,,,0.00,WeatherTracker,2010-07-25 02:20:00,
2010-07-24 21:25:00,72.6,67.5,29.97,East,80,0.0,0.0,84,0.00,,,0.00,WeatherTracker,2010-07-25 02:25:00,
2010-07-24 21:30:00,72.3,67.5,29.97,East,80,0.0,0.0,85,0.00,,,0.00,WeatherTracker,2010-07-25 02:30:00,
2010-07-24 21:35:00,72.0,67.6,29.98,East,80,0.0,0.0,86,0.00,,,0.00,WeatherTracker,2010-07-25 02:35:00,
2010-07-24 21:40:00,71.7,67.3,29.98,East,80,0.0,0.0,86,0.00,,,0.00,WeatherTracker,2010-07-25 02:40:00,
2010-07-24 21:45:00,71.6,67.5,29.98,East,80,0.0,0.0,87,0.00,,,0.00,WeatherTracker,2010-07-25 02:45:00,
2010-07-24 21:50:00,71.3,67.6,29.99,East,80,0.0,0.0,88,0.00,,,0.00,WeatherTracker,2010-07-25 02:50:00,
2010-07-24 21:55:00,71.2,67.8,29.99,East,80,0.0,0.0,89,0.00,,,0.00,WeatherTracker,2010-07-25 02:55:00,
2010-07-24 22:00:00,71.2,68.1,29.99,East,80,0.0,0.0,90,0.00,,,0.00,WeatherTracker,2010-07-25 03:00:00,
2010-07-24 22:05:00,71.1,68.0,29.99,East,80,0.0,0.0,90,0.00,,,0.00,WeatherTracker,2010-07-25 03:05:00,
2010-07-24 22:10:00,71.0,67.9,30.00,East,80,0.0,0.0,90,0.00,,,0.00,WeatherTracker,2010-07-25 03:10:00,
2010-07-24 22:15:00,70.8,67.7,30.00,East,80,0.0,0.0,90,0.00,,,0.00,WeatherTracker,2010-07-25 03:15:00,
2010-07-24 22:20:00,70.7,67.6,30.00,East,80,0.0,0.0,90,0.00,,,0.00,WeatherTracker,2010-07-25 03:20:00,
2010-07-24 22:25:00,70.6,67.8,30.00,East,80,0.0,0.0,91,0.00,,,0.00,WeatherTracker,2010-07-25 03:25:00,
2010-07-24 22:30:00,70.4,67.6,30.00,East,80,0.0,0.0,91,0.00,,,0.00,WeatherTracker,2010-07-25 03:30:00,
2010-07-24 22:35:00,70.3,67.5,30.00,East,80,0.0,0.0,91,0.00,,,0.00,WeatherTracker,2010-07-25 03:35:00,
2010-07-24 22:40:00,70.2,67.4,30.00,East,80,0.0,0.0,91,0.00,,,0.00,WeatherTracker,2010-07-25 03:40:00,
2010-07-24 22:46:00,70.1,67.7,30.00,East,80,0.0,0.0,92,0.00,,,0.00,WeatherTracker,2010-07-25 03:46:00,
2010-07-24 22:51:00,70.0,67.6,30.00,East,80,0.0,0.0,92,0.00,,,0.00,WeatherTracker,2010-07-25 03:51:00,
2010-07-24 22:56:00,69.9,67.5,30.00,East,80,0.0,0.0,92,0.00,,,0.00,WeatherTracker,2010-07-25 03:56:00,
2010-07-24 23:00:00,69.8,67.4,30.00,East,80,0.0,0.0,92,0.00,,,0.00,WeatherTracker,2010-07-25 04:00:00,
2010-07-24 23:01:00,69.8,67.4,30.00,East,80,0.0,0.0,92,0.00,,,0.00,WeatherTracker,2010-07-25 04:01:00,
2010-07-24 23:06:00,69.7,67.3,30.01,East,80,0.0,0.0,92,0.00,,,0.00,WeatherTracker,2010-07-25 04:06:00,
2010-07-24 23:11:00,69.6,67.2,30.01,East,80,0.0,0.0,92,0.00,,,0.00,WeatherTracker,2010-07-25 04:11:00,
2010-07-24 23:16:00,69.5,67.4,30.01,East,80,0.0,0.0,93,0.00,,,0.00,WeatherTracker,2010-07-25 04:16:00,
2010-07-24 23:21:00,69.4,67.3,30.01,East,80,0.0,0.0,93,0.00,,,0.00,WeatherTracker,2010-07-25 04:21:00,
2010-07-24 23:26:00,69.4,67.3,30.01,East,80,0.0,0.0,93,0.00,,,0.00,WeatherTracker,2010-07-25 04:26:00,
2010-07-24 23:31:00,69.3,67.2,30.02,East,80,0.0,0.0,93,0.00,,,0.00,WeatherTracker,2010-07-25 04:31:00,
2010-07-24 23:36:00,69.2,67.1,30.02,East,80,0.0,0.0,93,0.00,,,0.00,WeatherTracker,2010-07-25 04:36:00,
2010-07-24 23:41:00,69.1,67.0,30.02,East,80,0.0,0.0,93,0.00,,,0.00,WeatherTracker,2010-07-25 04:41:00,
2010-07-24 23:46:00,69.0,66.9,30.02,East,80,0.0,0.0,93,0.00,,,0.00,WeatherTracker,2010-07-25 04:46:00,
2010-07-24 23:51:00,68.9,66.8,30.02,East,80,0.0,0.0,93,0.00,,,0.00,WeatherTracker,2010-07-25 04:51:00,
2010-07-24 23:56:00,68.8,66.7,30.02,East,80,0.0,0.0,93,0.00,,,0.00,WeatherTracker,2010-07-25 04:56:00,